Tiempo atmosférico en la estación meteorológica de La Oliva, Las Palmas (217 m.)



Fecha
DESCASC
Temp. máxima en grados centígrados (hora)
DESCASC
Temp. mínima en grados centígrados (hora)
DESCASC
Temp. media en grados centígrados
DESCASC
Racha de viento máxima en m/sg (hora)
DESCASC
Velocidad máxima media en intervalos de 10 minutos(hora)
DESCASC
Precipitaciones diarias en mm
DESCASC
Precipitaciones de 00:00 a 06:00 en mm
DESCASC
Precipitaciones de 06:00 a 12:00 en mm
DESCASC
Precipitaciones de 12:00 a 18:00 en mm
DESCASC
Precipitaciones de 18:00 a 24:00 en mm
DESCASC
06-12-2018 22.7 (14:10) 16.6 (07:40) 19.7 16.11 (00:10) 10.83 (02:40) 0 0 0 0 0
05-12-2018 21.9 (12:00) 15.5 (07:40) 18.7 16.39 (23:50) 10 (23:50) 0 0 0 0 0
04-12-2018 24.4 (14:10) 14.4 (00:00) 19.4 10.28 (10:50) 6.67 (11:40) 0 0 0 0 0
03-12-2018 22.8 (14:50) 14.1 (00:00) 18.4 9.72 (09:50) 6.11 (10:00) 0 0 0 0 0
02-12-2018 20.2 (13:30) 14.6 (00:00) 17.4 8.33 (10:50) 5.56 (10:20) 0 0 0 0 0
01-12-2018 21 (14:10) 15.9 (00:00) 18.4 8.61 (18:30) 5 (18:50) 0 0 0 0 0
30-11-2018 21.3 (13:30) 11.7 (00:00) 16.5 6.94 (21:30) 4.44 (18:40) 0 0 0 0 0
29-11-2018 22.6 (11:50) 14.7 (00:00) 18.7 7.78 (12:30) 5.28 (12:30) 0 0 0 0 0
28-11-2018 21.5 (13:50) 14.7 (00:00) 18.1 8.89 (14:40) 5.56 (01:50) 0 0 0 0 0
27-11-2018 19.7 (13:30) 14.5 (00:00) 17.1 7.5 (23:40) 4.44 (16:10) 0 0 0 0 0
26-11-2018 20.6 (14:10) 15.1 (03:00) 17.9 5.28 (10:50) 3.33 (11:30) 0 0 0 0 0
25-11-2018 21.1 (12:30) 15.3 (00:00) 18.2 7.78 (12:30) 5.56 (00:40) 1.2 0 1.2 0 0
24-11-2018 19.9 (13:30) 9.8 (00:00) 14.8 7.5 (13:40) 5 (13:40) 0 0 0 0 0
23-11-2018 18.6 (13:50) 11.6 (00:00) 15.1 10 (15:20) 5 (04:30) 9.8 6.6 0.2 3 0
22-11-2018 18.5 (12:50) 13.5 (00:00) 16 10.83 (15:00) 6.94 (15:00) 4.2 0 3.8 0.4 0
21-11-2018 22.3 (12:20) 14.6 (00:00) 18.4 9.17 (13:40) 6.67 (13:30) 0 0 0 0 0
20-11-2018 21.3 (12:50) 11 (00:00) 16.1 7.78 (14:10) 5.28 (22:40) 0 0 0 0 0
19-11-2018 19.8 (14:10) 13.8 (00:00) 16.8 10 (13:50) 6.11 (14:50) 1.2 0 1 0.2 0
18-11-2018 20 (14:20) 13.8 (00:00) 16.9 11.67 (15:10) 8.33 (15:10) 0.2 0 0 0 0.2
17-11-2018 23.1 (12:30) 13 (00:00) 18.1 16.94 (14:10) 11.67 (14:10) 5.8 0 0 3.6 2.2
16-11-2018 21 (13:30) 14.2 (00:00) 17.6 10.83 (14:50) 7.5 (14:50) 0 0 0 0 0
15-11-2018 20.8 (12:30) 11 (00:00) 15.9 11.11 (13:40) 7.78 (13:40) 1.6 0 0 0.8 0.8
14-11-2018 20.9 (15:10) 13.9 (00:00) 17.4 7.78 (16:10) 4.72 (16:10) 0 0 0 0 0
13-11-2018 20 (15:00) 14.8 (00:00) 17.4 11.11 (12:00) 6.39 (13:20) 0.4 0 0.2 0.2 0
12-11-2018 19.6 (14:20) 14.9 (00:00) 17.3 10.28 (12:00) 5.56 (12:10) 4 0 3.8 0.2 0
11-11-2018 21.8 (14:30) 13 (00:00) 17.4 9.17 (11:20) 4.44 (16:10) 0 0 0 0 0
10-11-2018 20.9 (12:00) 14.5 (00:00) 17.7 9.44 (14:50) 5.56 (10:40) 0 0 0 0 0

Gráficas

Temp. máximas Temp. mínimas Temp. medias Precipitaciones Rachas de viento máximas Velocidades máximas media en intervalos de 10 minutos

Datos horarios

Fecha y hora oficial Temperatura (ºC) Velocidad del viento (km/h) Dirección del viento Racha (km/h) Dirección de racha Precipitación (mm) Presión (hPa) Tendencia (hPa) Humedad (%)
2018-12-09 23:00:00 15.8 10 Sudeste 14 Sudeste 0 -- -- 98
2018-12-09 22:00:00 16.2 9 Este 14 Este 0 -- -- 98
2018-12-09 21:00:00 16.5 11 Este 19 Este 0 -- -- 96
2018-12-09 20:00:00 16.7 9 Este 14 Este 0 -- -- 93
2018-12-09 19:00:00 17.2 5 Este 13 Este 0 -- -- 87
2018-12-09 18:00:00 19 9 Este 18 Este 0 -- -- 80
2018-12-09 17:00:00 20.4 10 Este 22 Este 0 -- -- 78
2018-12-09 16:00:00 20.5 17 Este 23 Este 0 -- -- 77
2018-12-09 15:00:00 20.6 14 Este 28 Este 0 -- -- 78
2018-12-09 14:00:00 20.4 18 Este 32 Sudeste 0 -- -- 79
2018-12-09 13:00:00 20.3 21 Este 33 Este 0 -- -- 80
2018-12-09 12:00:00 20.1 18 Este 31 Este 0 -- -- 82
2018-12-09 11:00:00 19.2 18 Este 32 Sudeste 0 -- -- 85
2018-12-09 10:00:00 18 17 Este 31 Sudeste 0 -- -- 94
2018-12-09 09:00:00 16.6 15 Este 26 Este 0 -- -- 99
2018-12-09 08:00:00 15.5 14 Este 24 Este 0 -- -- 99
2018-12-09 07:00:00 15.4 13 Este 24 Este 0 -- -- 98
2018-12-09 06:00:00 15.8 15 Este 25 Este 0 -- -- 97
2018-12-09 05:00:00 15.9 17 Este 26 Este 0 -- -- 97
2018-12-09 04:00:00 16 17 Este 27 Este 0 -- -- 96
2018-12-09 03:00:00 16.2 17 Este 26 Este 0 -- -- 96
2018-12-09 02:00:00 16.4 14 Este 28 Este 0 -- -- 97
2018-12-09 01:00:00 16.4 17 Este 31 Este 0 -- -- 97
2018-12-09 00:00:00 16.2 10 Este 20 Este 0 -- -- 98
2018-12-08 23:00:00 15.9 10 Este 17 Este 0 -- -- 97
2018-12-08 22:00:00 16.3 11 Este 18 Este 0 -- -- 97
2018-12-08 21:00:00 16.4 10 Este 19 Sudeste 0 -- -- 96
2018-12-08 20:00:00 16.6 10 Este 18 Este 0 -- -- 95
2018-12-08 19:00:00 16.8 10 Este 17 Este 0 -- -- 92
2018-12-08 18:00:00 17.9 9 Este 18 Sudeste 0 -- -- 87
2018-12-08 17:00:00 19.4 10 Este 22 Sudeste 0 -- -- 82
2018-12-08 16:00:00 20.3 14 Este 24 Sudeste 0 -- -- 78
2018-12-08 15:00:00 20.5 12 Este 26 Este 0 -- -- 76
2018-12-08 14:00:00 20.6 14 Este 24 Este 0 -- -- 77
2018-12-08 13:00:00 20.5 14 Este 28 Este 0 -- -- 76
2018-12-08 12:00:00 20 16 Este 29 Este 0 -- -- 77
2018-12-08 11:00:00 19.6 16 Este 26 Este 0 -- -- 79
2018-12-08 10:00:00 18.2 16 Este 30 Este 0 -- -- 84
2018-12-08 09:00:00 17.5 14 Este 27 Este 0 -- -- 89
2018-12-08 08:00:00 16.9 15 Este 25 Este 0 -- -- 90
2018-12-08 07:00:00 16.7 15 Este 30 Este 0 -- -- 91
2018-12-08 06:00:00 16.6 18 Este 32 Este 0 -- -- 91
2018-12-08 05:00:00 16.7 20 Este 33 Este 0 -- -- 91
2018-12-08 04:00:00 16.6 22 Este 31 Este 0 -- -- 92
2018-12-08 03:00:00 16.7 18 Este 31 Este 0 -- -- 91
2018-12-08 02:00:00 16.8 20 Este 32 Este 0 -- -- 92
2018-12-08 01:00:00 16.9 17 Este 32 Este 0 -- -- 92
2018-12-08 00:00:00 17.1 23 Este 36 Nordeste 0 -- -- 92
2018-12-07 23:00:00 17.1 19 Este 35 Nordeste 0 -- -- 93
2018-12-07 22:00:00 16.9 21 Este 32 Este 0 -- -- 95
2018-12-07 21:00:00 16.9 18 Este 33 Este 0 -- -- 95
2018-12-07 20:00:00 17 10 Este 23 Este 0 -- -- 93
2018-12-07 19:00:00 17.5 10 Este 21 Este 0 -- -- 92
2018-12-07 18:00:00 18.4 14 Este 23 Este 0 -- -- 88
2018-12-07 17:00:00 19.6 13 Nordeste 22 Nordeste 0 -- -- 83
2018-12-07 16:00:00 20.7 12 Este 22 Este 0 -- -- 80
2018-12-07 15:00:00 21.4 13 Sudeste 23 Sudeste 0 -- -- 78
2018-12-07 14:00:00 21.5 15 Este 25 Este 0 -- -- 74
2018-12-07 13:00:00 21.1 15 Este 26 Este 0 -- -- 76
2018-12-07 12:00:00 20.6 17 Este 28 Sudeste 0 -- -- 79
2018-12-07 11:00:00 18.8 19 Este 30 Sudeste 0 -- -- 88
2018-12-07 10:00:00 17.4 21 Este 32 Este 0 -- -- 94
2018-12-07 09:00:00 16.9 17 Este 29 Este 0 -- -- 95
2018-12-07 08:00:00 16.7 18 Este 28 Este 0 -- -- 96
2018-12-07 07:00:00 16.7 12 Este 26 Este 0 -- -- 96
2018-12-07 06:00:00 16.9 16 Este 30 Este 0 -- -- 96
2018-12-07 05:00:00 17 12 Este 20 Este 0 -- -- 96
2018-12-07 04:00:00 17.2 13 Este 20 Sudeste 0 -- -- 95
2018-12-07 03:00:00 17.4 8 Sudeste 17 Sudeste 0 -- -- 90
2018-12-07 02:00:00 18.4 13 Este 21 Este 0 -- -- 68
2018-12-07 01:00:00 18.8 12 Este 19 Sudeste 0 -- -- 50
2018-12-07 00:00:00 18.2 12 Este 20 Este 0 -- -- 61
2018-12-06 23:00:00 17.9 12 Este 18 Este 0 -- -- 69
2018-12-06 22:00:00 18.3 7 Este 13 Este 0 -- -- 63
2018-12-06 21:00:00 18.9 9 Este 23 Este 0 -- -- 58
2018-12-06 20:00:00 19.5 13 Este 24 Este 0 -- -- 45
2018-12-06 19:00:00 18.9 13 Este 22 Nordeste 0 -- -- 50
2018-12-06 18:00:00 19.3 4 Este 17 Nordeste 0 -- -- 51
2018-12-06 17:00:00 20.7 13 Nordeste 29 Este 0 -- -- 47
2018-12-06 16:00:00 21.7 19 Este 32 Este 0 -- -- 42
2018-12-06 15:00:00 22.3 18 Este 35 Este 0 -- -- 45
2018-12-06 14:00:00 22.4 22 Este 35 Sudeste 0 -- -- 45
2018-12-06 13:00:00 22.3 23 Este 35 Este 0 -- -- 46
2018-12-06 12:00:00 22.1 22 Este 33 Este 0 -- -- 50
2018-12-06 11:00:00 21.3 22 Este 33 Este 0 -- -- 57
2018-12-06 10:00:00 20.1 21 Este 31 Sudeste 0 -- -- 74
2018-12-06 09:00:00 18.2 17 Este 24 Este 0 -- -- 88
2018-12-06 08:00:00 16.6 14 Este 23 Este 0 -- -- 94
2018-12-06 07:00:00 16.8 17 Este 28 Este 0 -- -- 92
2018-12-06 06:00:00 17.3 21 Este 36 Este 0 -- -- 94
2018-12-06 05:00:00 17.5 25 Este 46 Este 0 -- -- 92
2018-12-06 04:00:00 17.3 35 Este 46 Este 0 -- -- 91
2018-12-06 03:00:00 18 35 Este 54 Este 0 -- -- 84
2018-12-06 02:00:00 18.2 36 Este 50 Este 0 -- -- 82
2018-12-06 01:00:00 18 34 Este 58 Este 0 -- -- 83
2018-12-06 00:00:00 19.1 35 Este 59 Este 0 -- -- 71
2018-12-05 23:00:00 18.4 29 Este 44 Este 0 -- -- 82
2018-12-05 22:00:00 18.9 25 Este 44 Este 0 -- -- 73
2018-12-05 21:00:00 20.4 23 Este 43 Este 0 -- -- 49
2018-12-05 20:00:00 19.9 22 Este 38 Este 0 -- -- 54
2018-12-05 19:00:00 19.3 18 Este 33 Este 0 -- -- 60
2018-12-05 18:00:00 19.6 15 Este 30 Este 0 -- -- 58
2018-12-05 17:00:00 20.6 15 Este 32 Este 0 -- -- 53
2018-12-05 16:00:00 20.7 17 Este 31 Este 0 -- -- 51
2018-12-05 15:00:00 21 17 Este 31 Este 0 -- -- 52
2018-12-05 14:00:00 21.4 19 Este 37 Este 0 -- -- 49
2018-12-05 13:00:00 21.2 25 Este 39 Este 0 -- -- 43
2018-12-05 12:00:00 21.9 21 Este 42 Este 0 -- -- 43
2018-12-05 11:00:00 21.4 18 Este 34 Este 0 -- -- 55
2018-12-05 10:00:00 20.1 14 Este 25 Este 0 -- -- 70
2018-12-05 09:00:00 18 8 Este 14 Este 0 -- -- 89
2018-12-05 08:00:00 15.6 8 Este 14 Este 0 -- -- 90
2018-12-05 07:00:00 15.7 9 Este 13 Este 0 -- -- 94
2018-12-05 06:00:00 16 7 Este 12 Este 0 -- -- 95
2018-12-05 05:00:00 16.4 9 Este 14 Este 0 -- -- 95
2018-12-05 04:00:00 16.6 7 Este 12 Este 0 -- -- 94
2018-12-05 03:00:00 16.9 9 Este 18 Este 0 -- -- 91
2018-12-05 02:00:00 17.8 14 Este 33 Este 0 -- -- 85
2018-12-05 01:00:00 18.1 21 Este 37 Este 0 -- -- 74
2018-12-05 00:00:00 17.9 17 Este 28 Este 0 -- -- 68
2018-12-04 23:00:00 15.7 0 Calma 7 Nordeste 0 -- -- 59
2018-12-04 22:00:00 17 0 Calma 9 Este 0 -- -- 56
2018-12-04 21:00:00 16.7 7 Este 8 Este 0 -- -- 54
2018-12-04 20:00:00 16.8 0 Calma 8 Nordeste 0 -- -- 63
2018-12-04 19:00:00 18.3 7 Este 11 Este 0 -- -- 61
2018-12-04 18:00:00 20.8 6 Este 15 Este 0 -- -- 49
2018-12-04 17:00:00 23.3 8 Este 22 Sudeste 0 -- -- 43
2018-12-04 16:00:00 24.2 15 Sudeste 31 Sudeste 0 -- -- 32
2018-12-04 15:00:00 23.9 19 Sudeste 37 Sudeste 0 -- -- 35
2018-12-04 14:00:00 24 19 Sudeste 34 Sudeste 0 -- -- 37
2018-12-04 13:00:00 23.6 20 Sudeste 32 Sudeste 0 -- -- 39
2018-12-04 12:00:00 22.6 22 Sudeste 37 Sudeste 0 -- -- 45
2018-12-04 11:00:00 21.7 23 Sudeste 37 Sudeste 0 -- -- 49
2018-12-04 10:00:00 19.8 16 Este 27 Sudeste 0 -- -- 75
2018-12-04 09:00:00 17.3 13 Este 19 Este 0 -- -- 92
2018-12-04 08:00:00 15.8 14 Este 26 Este 0 -- -- 95
2018-12-04 07:00:00 15.6 18 Este 24 Este 0 -- -- 95
2018-12-04 06:00:00 16.2 12 Este 26 Este 0 -- -- 98
2018-12-04 05:00:00 16.4 17 Este 23 Este 0 -- -- 99
2018-12-04 04:00:00 16.8 12 Este 22 Este 0 -- -- 98
2018-12-04 03:00:00 16.4 4 Nordeste 17 Este 0 -- -- 96
2018-12-04 02:00:00 16.6 12 Este 19 Este 0 -- -- 89
2018-12-04 01:00:00 14.6 6 Este 10 Este 0 -- -- 77
2018-12-04 00:00:00 14.4 8 Nordeste 10 Este 0 -- -- 80
2018-12-03 23:00:00 14.6 5 Nordeste 12 Este 0 -- -- 92
2018-12-03 22:00:00 15.6 9 Este 12 Este 0 -- -- 94
2018-12-03 21:00:00 15.7 6 Este 8 Este 0 -- -- 88
2018-12-03 20:00:00 16.4 4 Este 10 Nordeste 0 -- -- 91
2018-12-03 19:00:00 17.4 10 Este 17 Este 0 -- -- 92
2018-12-03 18:00:00 19.1 11 Este 17 Este 0 -- -- 84
2018-12-03 17:00:00 21 8 Este 19 Este 0 -- -- 78
2018-12-03 16:00:00 21.7 13 Este 24 Este 0 -- -- 74
2018-12-03 15:00:00 22.5 14 Este 23 Este 0 -- -- 70
2018-12-03 14:00:00 22.4 13 Este 22 Sudeste 0 -- -- 69
2018-12-03 13:00:00 21.4 13 Sudeste 31 Este 0 -- -- 69
2018-12-03 12:00:00 20.6 21 Sudeste 34 Sudeste 0 -- -- 76
2018-12-03 11:00:00 19.4 13 Este 34 Este 0 -- -- 82
2018-12-03 10:00:00 18 22 Sudeste 35 Sudeste 0 -- -- 88
2018-12-03 09:00:00 16.8 14 Este 29 Sudeste 0 -- -- 93
2018-12-03 08:00:00 15.2 8 Este 22 Este 0 -- -- 95
2018-12-03 07:00:00 15.2 14 Este 21 Este 0 -- -- 94
2018-12-03 06:00:00 15.7 12 Este 19 Este 0 -- -- 94
2018-12-03 05:00:00 15.8 7 Este 23 Este 0 -- -- 94
2018-12-03 04:00:00 16.1 10 Este 24 Este 0 -- -- 94
2018-12-03 03:00:00 16.2 15 Este 22 Sudeste 0 -- -- 95
2018-12-03 02:00:00 15.9 13 Este 22 Este 0 -- -- 97
2018-12-03 01:00:00 15.7 10 Este 16 Sudeste 0 -- -- 96
2018-12-03 00:00:00 15.7 11 Este 18 Sudeste 0 -- -- 96
2018-12-02 23:00:00 15.8 12 Este 19 Este 0 -- -- 95
2018-12-02 22:00:00 15.5 11 Sudeste 16 Sudeste 0 -- -- 94
2018-12-02 21:00:00 15.7 7 Este 11 Este 0 -- -- 92
2018-12-02 20:00:00 16.2 5 Este 10 Este 0 -- -- 90
2018-12-02 19:00:00 17 3 Este 13 Este 0 -- -- 86
2018-12-02 18:00:00 18.2 7 Este 18 Este 0 -- -- 82
2018-12-02 17:00:00 19.3 12 Este 19 Sudeste 0 -- -- 77
2018-12-02 16:00:00 20 9 Este 20 Este 0 -- -- 74
2018-12-02 15:00:00 20 13 Este 23 Este 0 -- -- 73
2018-12-02 14:00:00 19.8 18 Sudeste 30 Este 0 -- -- 73
2018-12-02 13:00:00 20 17 Este 29 Este 0 -- -- 72
2018-12-02 12:00:00 19.8 15 Este 29 Este 0 -- -- 73
2018-12-02 11:00:00 18.4 18 Nordeste 30 Nordeste 0 -- -- 75
2018-12-02 10:00:00 18.2 16 Nordeste 30 Este 0 -- -- 76
2018-12-02 09:00:00 16.5 8 Nordeste 13 Nordeste 0 -- -- 83
2018-12-02 08:00:00 15.6 4 Nordeste 10 Norte 0 -- -- 86
2018-12-02 07:00:00 15.8 5 Nordeste 15 Norte 0 -- -- 85
2018-12-02 06:00:00 15.3 6 Nordeste 11 Norte 0 -- -- 90
2018-12-02 05:00:00 14.7 4 Nordeste 9 Norte 0 -- -- 92
2018-12-02 04:00:00 14.8 2 Nordeste 7 Nordeste 0 -- -- 92
2018-12-02 03:00:00 15.4 3 Este 8 Nordeste 0 -- -- 93
2018-12-02 02:00:00 15.1 4 Este 7 Nordeste 0 -- -- 95
2018-12-02 01:00:00 15.1 6 Nordeste 9 Nordeste 0 -- -- 94
2018-12-02 00:00:00 15.9 7 Nordeste 15 Nordeste 0 -- -- 92
2018-12-01 23:00:00 16.6 10 Nordeste 17 Nordeste 0 -- -- 91
2018-12-01 22:00:00 16.7 7 Nordeste 20 Nordeste 0 -- -- 89
2018-12-01 21:00:00 17 14 Este 24 Este 0 -- -- 87
2018-12-01 20:00:00 17.1 15 Este 24 Este 0 -- -- 87
2018-12-01 19:00:00 17.5 16 Este 31 Este 0 -- -- 87
2018-12-01 18:00:00 18.1 13 Este 27 Este 0 -- -- 81
2018-12-01 17:00:00 19.5 12 Nordeste 25 Nordeste 0 -- -- 72
2018-12-01 16:00:00 20 13 Nordeste 22 Nordeste 0 -- -- 74
2018-12-01 15:00:00 20.3 10 Nordeste 24 Nordeste 0 -- -- 75
2018-12-01 14:00:00 20.8 13 Nordeste 23 Nordeste 0 -- -- 72
2018-12-01 13:00:00 20.6 10 Nordeste 28 Norte 0 -- -- 73
2018-12-01 12:00:00 20 12 Norte 22 Norte 0 -- -- 75
2018-12-01 11:00:00 19.1 9 Norte 21 Norte 0 -- -- 80
2018-12-01 10:00:00 18.6 9 Nordeste 18 Nordeste 0 -- -- 87
2018-12-01 09:00:00 17.7 6 Nordeste 10 Este 0 -- -- 92
2018-12-01 08:00:00 17 4 Este 18 Este 0 -- -- 93
2018-12-01 07:00:00 16.8 11 Nordeste 17 Nordeste 0 -- -- 93
2018-12-01 06:00:00 17 6 Nordeste 14 Este 0 -- -- 91
2018-12-01 05:00:00 17.4 6 Este 15 Nordeste 0 -- -- 90
2018-12-01 04:00:00 17.5 7 Nordeste 17 Nordeste 0 -- -- 89
2018-12-01 03:00:00 17.5 13 Nordeste 22 Este 0 -- -- 89
2018-12-01 02:00:00 17.6 11 Nordeste 26 Este 0 -- -- 89
2018-12-01 01:00:00 17.5 14 Nordeste 26 Nordeste 0 -- -- 88
2018-12-01 00:00:00 17.4 15 Nordeste 24 Este 0 -- -- 87
2018-11-30 23:00:00 16.9 6 Nordeste 19 Nordeste 0 -- -- 86
2018-11-30 22:00:00 17 10 Nordeste 25 Nordeste 0 -- -- 85
2018-11-30 21:00:00 16.9 13 Nordeste 22 Nordeste 0 -- -- 87
2018-11-30 20:00:00 17.3 12 Nordeste 24 Nordeste 0 -- -- 89
2018-11-30 19:00:00 17.6 13 Nordeste 23 Nordeste 0 -- -- 89
2018-11-30 18:00:00 18.2 12 Nordeste 20 Nordeste 0 -- -- 86
2018-11-30 17:00:00 19.3 13 Nordeste 22 Nordeste 0 -- -- 80
2018-11-30 16:00:00 19.7 11 Nordeste 22 Este 0 -- -- 78
2018-11-30 15:00:00 20.5 12 Nordeste 20 Nordeste 0 -- -- 77
2018-11-30 14:00:00 21.1 10 Este 15 Este 0 -- -- 74
2018-11-30 13:00:00 20.8 7 Nordeste 15 Nordeste 0 -- -- 74
2018-11-30 12:00:00 20.1 9 Norte 19 Nordeste 0 -- -- 77
2018-11-30 11:00:00 19.4 14 Este 20 Nordeste 0 -- -- 82
2018-11-30 10:00:00 18.3 12 Este 21 Este 0 -- -- 89
2018-11-30 09:00:00 16.8 9 Este 16 Este 0 -- -- 96
2018-11-30 08:00:00 14.5 10 Este 16 Este 0 -- -- 97
2018-11-30 07:00:00 12 5 Este 7 Sudeste 0 -- -- 92
2018-11-30 06:00:00 11.8 3 Sur 5 Nordeste 0 -- -- 86
2018-11-30 05:00:00 13.1 3 Nordeste 10 Este 0 -- -- 82
2018-11-30 04:00:00 13.8 8 Este 11 Este 0 -- -- 82
2018-11-30 03:00:00 13.9 5 Este 9 Sudeste 0 -- -- 80
2018-11-30 02:00:00 15.6 7 Este 12 Este 0 -- -- 86
2018-11-30 01:00:00 15.2 8 Este 11 Este 0 -- -- 89
2018-11-30 00:00:00 16 6 Este 11 Sudeste 0 -- -- 91
2018-11-29 23:00:00 16.4 7 Sudeste 10 Este 0 -- -- 95
2018-11-29 22:00:00 16.7 6 Este 9 Este 0 -- -- 94
2018-11-29 21:00:00 17 4 Este 9 Este 0 -- -- 93
2018-11-29 20:00:00 17.5 6 Este 11 Este 0 -- -- 92
2018-11-29 19:00:00 18.1 6 Este 12 Este 0 -- -- 90
2018-11-29 18:00:00 19.3 8 Este 17 Sudeste 0 -- -- 85
2018-11-29 17:00:00 20.7 13 Este 22 Este 0 -- -- 78
2018-11-29 16:00:00 21.5 13 Este 24 Sudeste 0 -- -- 75
2018-11-29 15:00:00 21.8 15 Este 26 Sudeste 0 -- -- 70
2018-11-29 14:00:00 21.9 17 Este 28 Este 0 -- -- 68
2018-11-29 13:00:00 22.3 17 Este 28 Este 0 -- -- 64
2018-11-29 12:00:00 22.5 16 Este 25 Este 0 -- -- 54
2018-11-29 11:00:00 21.9 12 Este 20 Este 0 -- -- 53
2018-11-29 10:00:00 20.9 8 Este 20 Sudeste 0 -- -- 52
2018-11-29 09:00:00 18.9 9 Este 18 Nordeste 0 -- -- 64
2018-11-29 08:00:00 16.7 8 Este 13 Este 0 -- -- 75
2018-11-29 07:00:00 15.9 8 Este 15 Este 0 -- -- 82
2018-11-29 06:00:00 15.6 10 Este 13 Este 0 -- -- 93
2018-11-29 05:00:00 15.9 7 Este 14 Este 0 -- -- 95
2018-11-29 04:00:00 16.4 9 Este 16 Este 0 -- -- 94
2018-11-29 03:00:00 16.4 11 Este 19 Este 0 -- -- 71
2018-11-29 02:00:00 14.7 5 Sudeste 9 Este 0 -- -- 81
2018-11-29 01:00:00 15.8 9 Este 15 Este 0 -- -- 82
2018-11-29 00:00:00 14.8 5 Este 10 Este 0 -- -- 81
2018-11-28 23:00:00 16.1 5 Sudeste 9 Sudeste 0 -- -- 92
2018-11-28 22:00:00 16 6 Sudeste 8 Sudeste 0 -- -- 92
2018-11-28 21:00:00 16 4 Sudeste 7 Este 0 -- -- 90
2018-11-28 20:00:00 16.8 7 Nordeste 12 Nordeste 0 -- -- 88
2018-11-28 12:00:00 20.6 13 Este 21 Este 0 -- -- 78
2018-11-28 11:00:00 19.7 10 Este 19 Este 0 -- -- 83
2018-11-28 10:00:00 18.8 10 Este 19 Este 0 -- -- 89
2018-11-28 09:00:00 17.6 9 Este 16 Este 0 -- -- 94
2018-11-28 08:00:00 16.3 8 Este 16 Este 0 -- -- 96
2018-11-28 07:00:00 16.1 11 Este 17 Este 0 -- -- 96
2018-11-28 06:00:00 16.4 9 Este 19 Este 0 -- -- 94
2018-11-28 05:00:00 16.7 12 Este 23 Este 0 -- -- 93
2018-11-28 04:00:00 16.5 13 Este 24 Este 0 -- -- 93
2018-11-28 03:00:00 16.2 12 Este 26 Este 0 -- -- 90
2018-11-28 02:00:00 16.3 18 Este 32 Este 0 -- -- 89
2018-11-28 01:00:00 16.4 13 Este 25 Nordeste 0 -- -- 88
2018-11-28 00:00:00 16.4 14 Este 27 Nordeste 0 -- -- 85
2018-11-27 23:00:00 16.1 7 Nordeste 13 Nordeste 0 -- -- 89
2018-11-27 22:00:00 16.7 6 Nordeste 18 Nordeste 0 -- -- 85
2018-11-27 21:00:00 16.9 11 Nordeste 20 Nordeste 0 -- -- 83
2018-11-27 20:00:00 17 9 Nordeste 23 Nordeste 0 -- -- 83
2018-11-27 19:00:00 17.3 11 Nordeste 18 Nordeste 0 -- -- 83
2018-11-27 18:00:00 17.7 12 Nordeste 22 Este 0 -- -- 82
2018-11-27 17:00:00 18.7 14 Nordeste 24 Nordeste 0 -- -- 77
2018-11-27 16:00:00 19.2 15 Nordeste 25 Este 0 -- -- 72
2018-11-27 15:00:00 19.3 14 Este 23 Este 0 -- -- 73
2018-11-27 14:00:00 19.5 11 Nordeste 23 Nordeste 0 -- -- 72
2018-11-27 13:00:00 19.6 12 Nordeste 22 Este 0 -- -- 71
2018-11-27 12:00:00 18.9 13 Nordeste 23 Este 0 -- -- 73
2018-11-27 11:00:00 18.2 13 Nordeste 22 Nordeste 0 -- -- 78
2018-11-27 10:00:00 17.1 11 Nordeste 19 Nordeste 0 -- -- 92
2018-11-27 09:00:00 16 7 Nordeste 12 Este 0 -- -- 96
2018-11-27 08:00:00 14.5 4 Este 8 Este 0 -- -- 97
2018-11-27 07:00:00 15.2 6 Nordeste 10 Nordeste 0 -- -- 97
2018-11-27 06:00:00 15.7 5 Nordeste 8 Nordeste 0 -- -- 97
2018-11-27 05:00:00 15.8 5 Este 7 Este 0 -- -- 97
2018-11-27 04:00:00 15.9 4 Este 9 Este 0 -- -- 98
2018-11-27 03:00:00 15.9 5 Este 9 Sudeste 0 -- -- 99
2018-11-27 02:00:00 15.4 0 Calma 5 Nordeste 0 -- -- 99
2018-11-27 01:00:00 15.4 3 Nordeste 6 Nordeste 0 -- -- 97
2018-11-27 00:00:00 16 3 Este 8 Nordeste 0 -- -- 97
2018-11-26 23:00:00 15.9 3 Nordeste 8 Nordeste 0 -- -- 96
2018-11-26 22:00:00 16.3 6 Nordeste 12 Nordeste 0 -- -- 95
2018-11-26 21:00:00 16.8 4 Nordeste 10 Este -- -- -- 94
2018-11-26 20:00:00 17.1 5 Sudeste 6 Este 0 -- -- 92
2018-11-26 19:00:00 17.7 3 Este 9 Nordeste 0 -- -- 88
2018-11-26 18:00:00 19 6 Nordeste 14 Nordeste 0 -- -- 85
2018-11-26 17:00:00 19.8 10 Nordeste 19 Nordeste 0 -- -- 81
2018-11-26 16:00:00 19.8 11 Nordeste 18 Nordeste 0 -- -- 80
2018-11-26 15:00:00 20.3 10 Nordeste 16 Este 0 -- -- 78
2018-11-26 14:00:00 20.3 8 Este 15 Este 0 -- -- 81
2018-11-26 13:00:00 19.7 11 Nordeste 17 Nordeste 0 -- -- 85
2018-11-26 12:00:00 19.5 9 Nordeste 18 Nordeste 0 -- -- 85
2018-11-26 11:00:00 18.9 8 Nordeste 19 Nordeste 0 -- -- 92
2018-11-26 10:00:00 17.7 6 Nordeste 11 Este 0 -- -- 98
2018-11-26 09:00:00 17 4 Este 13 Nordeste 0 -- -- 100
2018-11-26 08:00:00 16.1 4 Nordeste 6 Este 0 -- -- 100
2018-11-26 07:00:00 15.9 4 Este 6 Este 0 -- -- 99
2018-11-26 06:00:00 15.4 4 Nordeste 11 Norte 0 -- -- 98
2018-11-26 05:00:00 16 4 Nordeste 14 Norte 0 -- -- 99
2018-11-26 04:00:00 15.5 2 Noroeste 8 Noroeste 0 -- -- 99
2018-11-26 03:00:00 15.1 3 Sudoeste 4 Sudoeste 0 -- -- 99
2018-11-26 02:00:00 15.3 2 Sudoeste 4 Sur 0 -- -- 98
2018-11-26 01:00:00 15.5 0 Calma 5 Sur 0 -- -- 97
2018-11-26 00:00:00 15.9 2 Sudeste 4 Sur 0 -- -- 96
2018-11-25 23:00:00 16.7 2 Sudeste 5 Sudeste 0 -- -- 96
2018-11-25 22:00:00 17.2 0 Calma 5 Sur 0 -- -- 96
2018-11-25 21:00:00 17.3 0 Calma 5 Sudoeste 0 -- -- 95
2018-11-25 20:00:00 17.7 0 Calma 6 Norte 0 -- -- 94
2018-11-25 19:00:00 18 4 Noroeste 18 Noroeste 0 -- -- 93
2018-11-25 18:00:00 18.4 10 Noroeste 20 Noroeste 0 -- -- 90
2018-11-25 17:00:00 19.6 12 Noroeste 25 Noroeste 0 -- -- 85
2018-11-25 16:00:00 20.3 14 Noroeste 25 Noroeste 0 -- -- 82
2018-11-25 15:00:00 20.6 15 Noroeste 26 Noroeste 0 -- -- 82
2018-11-25 14:00:00 19.9 13 Noroeste 22 Oeste 0 -- -- 86
2018-11-25 13:00:00 20.6 13 Noroeste 28 Noroeste 0 -- -- 85
2018-11-25 12:00:00 20.4 19 Noroeste 26 Oeste -- -- -- 94
2018-11-25 11:00:00 19.1 15 Noroeste 25 Oeste 0 -- -- 100
2018-11-25 10:00:00 18.3 14 Oeste 24 Oeste 0 -- -- 100
2018-11-25 09:00:00 17.8 16 Oeste 26 Oeste 0.2 -- -- 100
2018-11-25 08:00:00 17.2 17 Oeste 26 Oeste 0.6 -- -- 100
2018-11-25 07:00:00 16.8 13 Oeste 26 Oeste 0.4 -- -- 99
2018-11-25 06:00:00 16.6 14 Oeste 25 Oeste 0 -- -- 97
2018-11-25 05:00:00 16.6 18 Sudoeste 24 Sudoeste 0 -- -- 94
2018-11-25 04:00:00 16.3 14 Oeste 23 Oeste 0 -- -- 92
2018-11-25 03:00:00 15.7 15 Oeste 25 Sudoeste 0 -- -- 93
2018-11-25 02:00:00 15.5 14 Oeste 26 Sudoeste 0 -- -- 90
2018-11-25 01:00:00 15.4 19 Oeste 27 Oeste 0 -- -- 88
2018-11-25 00:00:00 15.5 18 Oeste 26 Sudoeste 0 -- -- 90
2018-11-24 23:00:00 15.7 14 Oeste 22 Oeste 0 -- -- 89
2018-11-24 22:00:00 15.8 17 Oeste 24 Oeste 0 -- -- 88
2018-11-24 21:00:00 15.8 17 Oeste 23 Oeste 0 -- -- 88
2018-11-24 20:00:00 16.1 17 Oeste 23 Oeste 0 -- -- 84
2018-11-24 19:00:00 16.1 13 Oeste 19 Oeste 0 -- -- 81
2018-11-24 18:00:00 17.1 13 Oeste 24 Oeste 0 -- -- 74
2018-11-24 17:00:00 18.5 17 Oeste 26 Oeste 0 -- -- 69
2018-11-24 16:00:00 18.6 13 Oeste 24 Oeste 0 -- -- 72
2018-11-24 15:00:00 19.4 13 Oeste 24 Oeste 0 -- -- 67
2018-11-24 14:00:00 19.5 15 Oeste 27 Sudoeste 0 -- -- 67
2018-11-24 13:00:00 19.8 13 Noroeste 25 Oeste 0 -- -- 65
2018-11-24 12:00:00 19.2 14 Oeste 22 Oeste 0 -- -- 66
2018-11-24 11:00:00 18.2 14 Oeste 22 Noroeste 0 -- -- 68
2018-11-24 10:00:00 16.9 9 Oeste 14 Oeste 0 -- -- 81
2018-11-24 09:00:00 13.2 0 Calma 4 Sur 0 -- -- 95
2018-11-24 08:00:00 10 0 Calma 3 Norte 0 -- -- 95
2018-11-24 07:00:00 10.3 0 Calma 4 Sur 0 -- -- 94
2018-11-24 06:00:00 10.6 2 Sudeste 3 Sudeste 0 -- -- 95
2018-11-24 05:00:00 10.4 0 Calma 3 Norte 0 -- -- 95
2018-11-24 04:00:00 10.7 3 Norte 3 Norte 0 -- -- 95
2018-11-24 03:00:00 11.2 2 Sur 4 Sudoeste 0 -- -- 94
2018-11-24 02:00:00 11.8 0 Calma 4 Sudoeste 0 -- -- 93
2018-11-24 01:00:00 12.1 0 Calma 4 Sudoeste 0 -- -- 91
2018-11-24 00:00:00 12.9 0 Calma 5 Norte 0 -- -- 89
2018-11-23 23:00:00 14.5 3 Norte 16 Norte 0 -- -- 83
2018-11-23 22:00:00 14.5 6 Norte 19 Norte 0 -- -- 85
2018-11-23 21:00:00 14.7 11 Norte 17 Norte 0 -- -- 87
2018-11-23 20:00:00 14.1 4 Noroeste 12 Norte 0 -- -- 88
2018-11-23 19:00:00 14.6 5 Noroeste 15 Noroeste 0 -- -- 83
2018-11-23 18:00:00 15.6 8 Norte 24 Norte 0 -- -- 79
2018-11-23 17:00:00 16.5 12 Norte 23 Norte 0 -- -- 81
2018-11-23 16:00:00 16.6 14 Norte 36 Norte 3 -- -- 82
2018-11-23 15:00:00 18 14 Norte 32 Noroeste 0 -- -- 70
2018-11-23 14:00:00 18.2 14 Norte 32 Norte 0 -- -- 72
2018-11-23 13:00:00 17.5 14 Norte 35 Noroeste 0 -- -- 74
2018-11-23 12:00:00 17.2 14 Norte 30 Noroeste 0 -- -- 77
2018-11-23 11:00:00 17.5 12 Norte 26 Norte 0 -- -- 81
2018-11-23 10:00:00 14.8 10 Norte 29 Norte 0 -- -- 87
2018-11-23 09:00:00 15.7 7 Noroeste 15 Oeste 0.2 -- -- 93
2018-11-23 08:00:00 11.7 6 Oeste 8 Oeste 0 -- -- 94
2018-11-23 07:00:00 12 4 Oeste 8 Noroeste 0 -- -- 92
2018-11-23 06:00:00 12 4 Sudoeste 9 Sudeste 0 -- -- 91
2018-11-23 05:00:00 11.9 3 Nordeste 35 Noroeste 6 -- -- 94
2018-11-23 04:00:00 13.9 5 Oeste 10 Noroeste 0.2 -- -- 96
2018-11-23 03:00:00 14 4 Sur 13 Oeste 0.2 -- -- 95
2018-11-23 02:00:00 14 3 Sudoeste 5 Oeste 0.2 -- -- 96
2018-11-23 01:00:00 13.7 2 Oeste 5 Sudoeste 0 -- -- 96
2018-11-23 00:00:00 13.8 3 Noroeste 5 Noroeste 0 -- -- 96
2018-11-22 23:00:00 13.8 5 Noroeste 12 Norte 0 -- -- 94
2018-11-22 22:00:00 14.2 2 Oeste 7 Oeste 0 -- -- 96
2018-11-22 21:00:00 14.7 5 Oeste 9 Oeste 0 -- -- 96
2018-11-22 20:00:00 15.1 4 Oeste 10 Noroeste 0 -- -- 96
2018-11-22 19:00:00 15.4 5 Noroeste 15 Oeste 0 -- -- 94
2018-11-22 18:00:00 15.9 13 Oeste 26 Oeste 0 -- -- 89
2018-11-22 17:00:00 16.3 14 Oeste 27 Oeste 0 -- -- 91
2018-11-22 16:00:00 16.3 15 Oeste 34 Oeste 0 -- -- 89
2018-11-22 15:00:00 16.2 25 Oeste 39 Oeste 0.4 -- -- 92
2018-11-22 14:00:00 18.3 21 Oeste 29 Oeste 0 -- -- 84
2018-11-22 13:00:00 18.2 15 Sudoeste 23 Sudoeste 0 -- -- 76
2018-11-22 12:00:00 17.1 10 Oeste 30 Sudoeste 0 -- -- 83
2018-11-22 11:00:00 16 16 Oeste 26 Oeste 0.2 -- -- 89
2018-11-22 10:00:00 14.7 12 Oeste 31 Noroeste 3.6 -- -- 95
2018-11-22 09:00:00 17.5 20 Sudoeste 31 Sudoeste 0 -- -- 88
2018-11-22 08:00:00 17.1 12 Sur 26 Sur 0 -- -- 89
2018-11-22 07:00:00 16.3 11 Sur 18 Sur 0 -- -- 91
2018-11-22 06:00:00 15.5 3 Nordeste 9 Este 0 -- -- 90
2018-11-22 05:00:00 15.9 6 Sudoeste 13 Sudoeste 0 -- -- 92
2018-11-22 04:00:00 15.2 0 Calma 6 Este 0 -- -- 88
2018-11-22 03:00:00 15.1 3 Nordeste 5 Sudeste 0 -- -- 86
2018-11-22 02:00:00 15.3 0 Calma 15 Sudoeste 0 -- -- 88
2018-11-22 01:00:00 15.7 11 Sudoeste 18 Sudoeste 0 -- -- 90
2018-11-22 00:00:00 15.5 9 Sudoeste 15 Sudoeste 0 -- -- 91
2018-11-21 23:00:00 15.8 13 Sudoeste 21 Sudoeste 0 -- -- 90
2018-11-21 22:00:00 15.8 14 Sudoeste 18 Sudoeste 0 -- -- 87
2018-11-21 21:00:00 16.1 8 Oeste 13 Sudoeste 0 -- -- 84
2018-11-21 20:00:00 16.9 8 Oeste 17 Sudoeste 0 -- -- 83
2018-11-21 19:00:00 17.7 10 Oeste 20 Oeste 0 -- -- 87
2018-11-21 18:00:00 18.9 14 Oeste 24 Oeste 0 -- -- 83
2018-11-21 17:00:00 20.2 15 Oeste 25 Oeste 0 -- -- 79
2018-11-21 16:00:00 20.9 20 Oeste 28 Oeste 0 -- -- 75
2018-11-21 15:00:00 21.3 21 Oeste 32 Oeste 0 -- -- 71
2018-11-21 14:00:00 21.7 22 Oeste 33 Oeste 0 -- -- 71
2018-11-21 13:00:00 22 21 Oeste 32 Oeste 0 -- -- 69
2018-11-21 12:00:00 21.9 21 Sudoeste 29 Sudoeste 0 -- -- 69
2018-11-21 11:00:00 21.4 13 Sudoeste 21 Sudoeste 0 -- -- 69
2018-11-21 10:00:00 19.7 16 Sudoeste 22 Oeste 0 -- -- 76
2018-11-21 09:00:00 17.9 15 Sudoeste 22 Sudoeste 0 -- -- 88
2018-11-21 08:00:00 15.4 11 Oeste 16 Oeste 0 -- -- 92
2018-11-21 07:00:00 14.7 6 Oeste 9 Oeste 0 -- -- 94
2018-11-21 06:00:00 15 4 Oeste 9 Oeste 0 -- -- 95
2018-11-21 05:00:00 15.6 9 Oeste 18 Oeste 0 -- -- 96
2018-11-21 04:00:00 15.8 3 Noroeste 14 Oeste 0 -- -- 97
2018-11-21 03:00:00 16.3 11 Oeste 17 Oeste 0 -- -- 97
2018-11-21 02:00:00 16.5 12 Oeste 21 Oeste 0 -- -- 96
2018-11-21 01:00:00 16.2 14 Oeste 19 Oeste 0 -- -- 96
2018-11-21 00:00:00 16.3 12 Oeste 21 Oeste 0 -- -- 94
2018-11-20 23:00:00 17.3 17 Oeste 27 Oeste 0 -- -- 93
2018-11-20 22:00:00 17.2 16 Oeste 23 Oeste 0 -- -- 92
2018-11-20 21:00:00 17.1 12 Oeste 20 Oeste 0 -- -- 92
2018-11-20 20:00:00 17.3 13 Oeste 19 Oeste 0 -- -- 91
2018-11-20 19:00:00 17.9 11 Oeste 17 Oeste 0 -- -- 90
2018-11-20 18:00:00 18.3 13 Oeste 19 Oeste 0 -- -- 86
2018-11-20 17:00:00 19.1 15 Oeste 26 Oeste 0 -- -- 85
2018-11-20 16:00:00 19.5 18 Oeste 27 Oeste 0 -- -- 80
2018-11-20 15:00:00 20.7 17 Oeste 28 Sudoeste 0 -- -- 73
2018-11-20 14:00:00 20.9 16 Oeste 23 Oeste 0 -- -- 71
2018-11-20 13:00:00 21 10 Oeste 22 Oeste 0 -- -- 70
2018-11-20 12:00:00 20.1 11 Noroeste 23 Oeste 0 -- -- 71
2018-11-20 11:00:00 19.7 11 Oeste 22 Oeste 0 -- -- 73
2018-11-20 10:00:00 17.9 10 Oeste 15 Oeste 0 -- -- 80
2018-11-20 09:00:00 14.4 0 Calma 3 Nordeste 0 -- -- 96
2018-11-20 08:00:00 11.5 0 Calma 3 Sudeste 0 -- -- 96
2018-11-20 07:00:00 11 0 Calma 2 Este 0 -- -- 95
2018-11-20 06:00:00 11.3 0 Calma 3 Sur 0 -- -- 95
2018-11-20 05:00:00 11.5 2 Sur 3 Sudeste 0 -- -- 95
2018-11-20 04:00:00 12 0 Calma 4 Noroeste 0 -- -- 93
2018-11-20 03:00:00 12.2 3 Noroeste 5 Noroeste 0 -- -- 93
2018-11-20 02:00:00 12.4 0 Calma 3 Noroeste 0 -- -- 92
2018-11-20 01:00:00 13.1 0 Calma 5 Noroeste 0 -- -- 90
2018-11-20 00:00:00 13.8 4 Noroeste 8 Noroeste 0 -- -- 90
2018-11-19 23:00:00 14.3 3 Norte 13 Noroeste 0 -- -- 90
2018-11-19 22:00:00 14.2 5 Noroeste 11 Oeste 0 -- -- 89
2018-11-19 21:00:00 14.7 7 Noroeste 14 Noroeste 0 -- -- 88
2018-11-19 20:00:00 15.1 10 Noroeste 19 Noroeste 0 -- -- 84
2018-11-19 19:00:00 16.1 13 Noroeste 20 Noroeste 0 -- -- 83
2018-11-19 18:00:00 16.6 13 Noroeste 28 Oeste 0 -- -- 77
2018-11-19 17:00:00 17.4 19 Noroeste 30 Noroeste 0 -- -- 77
2018-11-19 16:00:00 18.1 17 Noroeste 33 Noroeste 0 -- -- 75
2018-11-19 15:00:00 19 19 Noroeste 34 Oeste 0 -- -- 74
2018-11-19 14:00:00 19.5 18 Noroeste 36 Oeste 0.2 -- -- 70
2018-11-19 13:00:00 19.4 17 Noroeste 32 Oeste 0 -- -- 71
2018-11-19 12:00:00 18.4 21 Oeste 30 Oeste 0 -- -- 76
2018-11-19 11:00:00 17.8 13 Oeste 28 Oeste 1 -- -- 91
2018-11-19 10:00:00 17.8 17 Oeste 25 Oeste 0 -- -- 79
2018-11-19 09:00:00 16.5 13 Oeste 22 Oeste 0 -- -- 93
2018-11-19 08:00:00 15.1 5 Noroeste 21 Noroeste 0 -- -- 92
2018-11-19 07:00:00 14.3 4 Oeste 9 Oeste 0 -- -- 91
2018-11-19 06:00:00 14.2 7 Oeste 15 Noroeste 0 -- -- 92
2018-11-19 05:00:00 14.5 10 Noroeste 32 Noroeste 0 -- -- 90
2018-11-19 04:00:00 15.3 12 Oeste 18 Noroeste 0 -- -- 88
2018-11-19 03:00:00 14.9 5 Noroeste 15 Oeste 0 -- -- 90
2018-11-19 02:00:00 15.4 8 Oeste 13 Oeste 0 -- -- 90
2018-11-19 01:00:00 15.1 9 Oeste 28 Noroeste 0 -- -- 87
2018-11-19 00:00:00 15.2 12 Oeste 29 Noroeste 0 -- -- 89
2018-11-18 23:00:00 15.7 13 Noroeste 27 Noroeste 0 -- -- 87
2018-11-18 22:00:00 15.8 10 Noroeste 18 Noroeste 0.2 -- -- 90
2018-11-18 21:00:00 16.1 8 Noroeste 23 Noroeste 0 -- -- 84
2018-11-18 20:00:00 16.7 16 Noroeste 28 Noroeste 0 -- -- 77
2018-11-18 19:00:00 17.1 15 Noroeste 28 Noroeste 0 -- -- 78
2018-11-18 18:00:00 17.1 14 Noroeste 34 Noroeste 0 -- -- 80
2018-11-18 17:00:00 18.3 22 Noroeste 38 Oeste 0 -- -- 70
2018-11-18 16:00:00 19.5 24 Oeste 42 Oeste 0 -- -- 64
2018-11-18 15:00:00 18.9 24 Noroeste 41 Oeste 0 -- -- 72
2018-11-18 14:00:00 18.9 24 Oeste 37 Oeste 0 -- -- 72
2018-11-18 13:00:00 18.6 22 Oeste 33 Oeste 0 -- -- 73
2018-11-18 12:00:00 18.7 21 Oeste 33 Oeste 0 -- -- 71
2018-11-18 11:00:00 18.5 23 Noroeste 33 Noroeste 0 -- -- 73
2018-11-18 10:00:00 18.1 22 Noroeste 33 Noroeste 0 -- -- 75
2018-11-18 09:00:00 17.4 17 Oeste 26 Oeste 0 -- -- 79
2018-11-18 08:00:00 14.3 10 Oeste 15 Noroeste 0 -- -- 84
2018-11-18 07:00:00 14.2 9 Noroeste 21 Noroeste 0 -- -- 80
2018-11-18 06:00:00 15.1 11 Noroeste 19 Noroeste 0 -- -- 83
2018-11-18 05:00:00 15.5 9 Noroeste 23 Noroeste 0 -- -- 84
2018-11-18 04:00:00 15.2 16 Oeste 24 Oeste 0 -- -- 83
2018-11-18 03:00:00 15.4 11 Oeste 23 Noroeste 0 -- -- 84
2018-11-18 02:00:00 15.7 12 Noroeste 21 Noroeste 0 -- -- 89
2018-11-18 01:00:00 15.5 7 Noroeste 18 Noroeste 0 -- -- 88
2018-11-18 00:00:00 15.8 10 Noroeste 15 Noroeste 0 -- -- 92
2018-11-17 23:00:00 16.2 7 Oeste 21 Noroeste 0 -- -- 93
2018-11-17 22:00:00 16.2 6 Noroeste 25 Oeste 0 -- -- 94
2018-11-17 21:00:00 16.7 12 Oeste 19 Oeste 0 -- -- 98
2018-11-17 20:00:00 16.1 13 Oeste 35 Oeste 2.2 -- -- 97
2018-11-17 19:00:00 17.5 15 Oeste 24 Oeste 0 -- -- 99
2018-11-17 18:00:00 17.5 17 Oeste 26 Oeste 1 -- -- 99
2018-11-17 17:00:00 17.5 17 Noroeste 50 Oeste 2.4 -- -- 98
2018-11-17 16:00:00 19.3 33 Sudoeste 55 Sudoeste 0.2 -- -- 94
2018-11-17 15:00:00 20.3 33 Sudoeste 61 Sudoeste 0 -- -- 85
2018-11-17 14:00:00 21.4 37 Sudoeste 51 Sudoeste 0 -- -- 73
2018-11-17 13:00:00 21.8 38 Sudoeste 51 Sudoeste 0 -- -- 66
2018-11-17 12:00:00 22.4 31 Sudoeste 43 Sudoeste 0 -- -- 63
2018-11-17 11:00:00 21.7 32 Sudoeste 44 Sudoeste 0 -- -- 61
2018-11-17 10:00:00 20.1 26 Sudoeste 39 Sur 0 -- -- 70
2018-11-17 09:00:00 18.6 19 Sudoeste 33 Sudoeste 0 -- -- 77
2018-11-17 08:00:00 16.7 19 Sudoeste 39 Sur 0 -- -- 84
2018-11-17 07:00:00 16.5 17 Sudoeste 32 Sudoeste 0 -- -- 79
2018-11-17 06:00:00 16.1 13 Sur 24 Sur 0 -- -- 83
2018-11-17 05:00:00 15.4 12 Sur 23 Sur 0 -- -- 85
2018-11-17 04:00:00 14.7 14 Sur 19 Sur 0 -- -- 91
2018-11-17 03:00:00 13 4 Oeste 6 Oeste 0 -- -- 88
2018-11-17 02:00:00 13.7 0 Calma 10 Sudoeste 0 -- -- 86
2018-11-17 01:00:00 15.1 7 Sudoeste 16 Sudoeste 0 -- -- 84
2018-11-17 00:00:00 14.8 4 Oeste 15 Sudoeste 0 -- -- 83
2018-11-16 23:00:00 15.3 9 Oeste 13 Sudoeste 0 -- -- 82
2018-11-16 22:00:00 15.4 6 Oeste 10 Oeste 0 -- -- 81
2018-11-16 21:00:00 15.9 5 Oeste 12 Oeste 0 -- -- 79
2018-11-16 20:00:00 16.5 9 Oeste 15 Oeste 0 -- -- 76
2018-11-16 19:00:00 17.6 8 Oeste 19 Oeste 0 -- -- 77
2018-11-16 18:00:00 18 12 Oeste 28 Oeste 0 -- -- 70
2018-11-16 17:00:00 19.4 17 Oeste 34 Oeste 0 -- -- 64
2018-11-16 16:00:00 19.6 26 Oeste 36 Oeste 0 -- -- 69
2018-11-16 15:00:00 18.9 21 Oeste 39 Noroeste 0 -- -- 76
2018-11-16 14:00:00 20.4 24 Oeste 35 Oeste 0 -- -- 65
2018-11-16 13:00:00 20.8 23 Oeste 36 Noroeste 0 -- -- 59
2018-11-16 12:00:00 20.3 24 Oeste 36 Oeste 0 -- -- 59
2018-11-16 11:00:00 19.2 21 Oeste 34 Oeste 0 -- -- 62
2018-11-16 10:00:00 18.8 22 Oeste 32 Oeste 0 -- -- 57
2018-11-16 09:00:00 16.7 16 Oeste 26 Oeste 0 -- -- 72
2018-11-16 08:00:00 15.1 10 Oeste 17 Oeste 0 -- -- 85
2018-11-16 07:00:00 14.7 9 Oeste 20 Noroeste 0 -- -- 88
2018-11-16 06:00:00 15 9 Noroeste 27 Noroeste 0 -- -- 90
2018-11-16 05:00:00 14.8 14 Oeste 26 Noroeste 0 -- -- 86
2018-11-16 04:00:00 14.4 10 Oeste 23 Oeste 0 -- -- 86
2018-11-16 03:00:00 14.8 14 Oeste 24 Oeste 0 -- -- 85
2018-11-16 02:00:00 14.4 14 Oeste 22 Oeste 0 -- -- 86
2018-11-16 01:00:00 14.4 10 Oeste 16 Oeste 0 -- -- 89
2018-11-16 00:00:00 14.5 7 Oeste 14 Oeste 0 -- -- 91
2018-11-15 23:00:00 15 10 Noroeste 22 Sudoeste 0.6 -- -- 94
2018-11-15 22:00:00 15.7 13 Oeste 31 Oeste 0.2 -- -- 96
2018-11-15 21:00:00 15.3 17 Oeste 26 Oeste 0 -- -- 98
2018-11-15 20:00:00 14.9 14 Oeste 18 Oeste 0 -- -- 97
2018-11-15 19:00:00 15.4 13 Oeste 19 Oeste 0 -- -- 95
2018-11-15 18:00:00 16.3 11 Oeste 20 Sudoeste 0 -- -- 86
2018-11-15 17:00:00 16.9 13 Oeste 21 Oeste 0 -- -- 88
2018-11-15 16:00:00 17.3 15 Oeste 27 Oeste 0 -- -- 93
2018-11-15 15:00:00 16.9 21 Oeste 35 Oeste 0 -- -- 95
2018-11-15 14:00:00 17.3 25 Oeste 40 Oeste 0.8 -- -- 94
2018-11-15 13:00:00 20.4 22 Oeste 36 Oeste 0 -- -- 71
2018-11-15 12:00:00 20.4 21 Oeste 33 Oeste 0 -- -- 70
2018-11-15 11:00:00 19.7 18 Oeste 31 Oeste 0 -- -- 72
2018-11-15 10:00:00 18.7 18 Oeste 27 Oeste 0 -- -- 79
2018-11-15 09:00:00 17.2 12 Sudoeste 16 Oeste 0 -- -- 83
2018-11-15 08:00:00 12.1 5 Oeste 7 Oeste 0 -- -- 94
2018-11-15 07:00:00 11.6 4 Oeste 6 Oeste 0 -- -- 93
2018-11-15 06:00:00 11 4 Oeste 5 Sudoeste 0 -- -- 91
2018-11-15 05:00:00 11.7 2 Sudeste 3 Este 0 -- -- 92
2018-11-15 04:00:00 11.6 0 Calma 4 Sur 0 -- -- 90
2018-11-15 03:00:00 12.1 0 Calma 6 Sudeste 0 -- -- 89
2018-11-15 02:00:00 12.6 2 Sudeste 6 Sudeste 0 -- -- 88
2018-11-15 01:00:00 13.2 3 Sur 4 Sudeste 0 -- -- 87
2018-11-15 00:00:00 13.9 2 Nordeste 4 Sudeste 0 -- -- 84
2018-11-14 23:00:00 14.7 0 Calma 5 Sudeste 0 -- -- 84
2018-11-14 22:00:00 14.4 0 Calma 5 Sudeste 0 -- -- 82
2018-11-14 21:00:00 14 3 Noroeste 4 Noroeste 0 -- -- 76
2018-11-14 20:00:00 15 4 Noroeste 7 Noroeste 0 -- -- 74
2018-11-14 19:00:00 16.3 7 Noroeste 18 Noroeste 0 -- -- 70
2018-11-14 18:00:00 17.7 12 Noroeste 25 Noroeste 0 -- -- 68
2018-11-14 17:00:00 18.9 13 Noroeste 28 Noroeste 0 -- -- 65
2018-11-14 16:00:00 19.8 14 Noroeste 27 Noroeste 0 -- -- 59
2018-11-14 15:00:00 20.7 14 Noroeste 25 Norte 0 -- -- 54
2018-11-14 14:00:00 20.7 12 Noroeste 24 Noroeste 0 -- -- 57
2018-11-14 13:00:00 19.8 11 Norte 24 Norte 0 -- -- 63
2018-11-14 12:00:00 20.4 11 Noroeste 22 Noroeste 0 -- -- 60
2018-11-14 11:00:00 19.4 9 Norte 18 Noroeste 0 -- -- 67
2018-11-14 10:00:00 18.3 8 Norte 15 Nordeste 0 -- -- 74
2018-11-14 09:00:00 16.7 6 Nordeste 14 Nordeste 0 -- -- 85
2018-11-14 08:00:00 14.3 4 Nordeste 9 Norte 0 -- -- 90
2018-11-14 07:00:00 14.3 2 Este 10 Nordeste 0 -- -- 89
2018-11-14 06:00:00 15 5 Nordeste 9 Nordeste 0 -- -- 88
2018-11-14 05:00:00 15.8 2 Este 13 Norte 0 -- -- 87
2018-11-14 04:00:00 15.6 0 Calma 12 Norte 0 -- -- 87
2018-11-14 03:00:00 15.6 5 Norte 14 Norte 0 -- -- 86
2018-11-14 02:00:00 15.4 0 Calma 10 Nordeste 0 -- -- 84
2018-11-14 01:00:00 15.3 7 Nordeste 19 Norte 0 -- -- 81
2018-11-14 00:00:00 15.8 10 Norte 19 Nordeste 0 -- -- 78
2018-11-13 23:00:00 15.6 10 Norte 22 Nordeste 0 -- -- 78
2018-11-13 22:00:00 15.6 10 Nordeste 18 Norte 0 -- -- 79
2018-11-13 21:00:00 15.8 9 Norte 19 Nordeste 0 -- -- 77
2018-11-13 20:00:00 16.3 12 Nordeste 26 Nordeste 0 -- -- 76
2018-11-13 19:00:00 16.9 15 Norte 31 Norte 0 -- -- 72
2018-11-13 18:00:00 17.7 17 Norte 37 Norte 0 -- -- 64
2018-11-13 17:00:00 18.8 20 Norte 40 Norte 0 -- -- 63
2018-11-13 16:00:00 19.4 22 Norte 40 Norte 0 -- -- 62
2018-11-13 15:00:00 20 20 Norte 37 Norte 0 -- -- 65
2018-11-13 14:00:00 19.4 20 Norte 39 Norte 0 -- -- 65
2018-11-13 13:00:00 18.4 19 Norte 33 Norte 0.2 -- -- 67
2018-11-13 12:00:00 17.5 22 Norte 40 Noroeste 0.2 -- -- 77
2018-11-13 11:00:00 18.5 18 Norte 35 Norte 0 -- -- 68
2018-11-13 10:00:00 18.2 21 Norte 36 Nordeste 0 -- -- 69
2018-11-13 09:00:00 17.1 13 Norte 30 Norte 0 -- -- 75
2018-11-13 08:00:00 16 17 Norte 32 Norte 0 -- -- 79
2018-11-13 07:00:00 15.1 13 Norte 22 Nordeste 0 -- -- 81
2018-11-13 06:00:00 14.8 9 Nordeste 21 Nordeste 0 -- -- 82
2018-11-13 05:00:00 15.5 12 Norte 23 Norte 0 -- -- 80
2018-11-13 04:00:00 15.1 8 Nordeste 22 Norte 0 -- -- 81
2018-11-13 03:00:00 15.7 12 Norte 28 Norte 0 -- -- 77
2018-11-13 02:00:00 14.9 10 Norte 22 Norte 0 -- -- 83
2018-11-13 01:00:00 15.1 7 Norte 22 Norte 0 -- -- 81
2018-11-13 00:00:00 15.5 13 Norte 22 Norte 0 -- -- 82
2018-11-12 23:00:00 15.7 10 Norte 26 Norte 0 -- -- 82
2018-11-12 22:00:00 16.3 12 Norte 25 Nordeste 0 -- -- 80
2018-11-12 21:00:00 16.3 12 Norte 28 Norte 0 -- -- 78
2018-11-12 20:00:00 16.7 15 Norte 29 Norte 0 -- -- 75
2018-11-12 19:00:00 17 13 Norte 31 Norte 0 -- -- 78
2018-11-12 18:00:00 17.3 15 Norte 35 Norte 0 -- -- 80
2018-11-12 17:00:00 18.6 14 Norte 35 Norte 0 -- -- 74
2018-11-12 16:00:00 19 15 Norte 35 Noroeste 0 -- -- 79
2018-11-12 15:00:00 19.2 16 Norte 37 Nordeste 0 -- -- 79
2018-11-12 14:00:00 18.8 15 Norte 33 Norte 0 -- -- 86
2018-11-12 13:00:00 18.4 13 Norte 33 Nordeste 0.2 -- -- 93
2018-11-12 12:00:00 18 17 Norte 37 Norte 0 -- -- 95
2018-11-12 11:00:00 17.6 8 Noroeste 26 Norte 1.2 -- -- 98
2018-11-12 10:00:00 17.7 8 Norte 26 Norte 0.6 -- -- 98
2018-11-12 09:00:00 16.7 6 Noroeste 28 Norte 1 -- -- 99
2018-11-12 08:00:00 16.7 14 Noroeste 33 Noroeste 1 -- -- 97
2018-11-12 07:00:00 17.1 13 Oeste 18 Oeste 0 -- -- 96
2018-11-12 06:00:00 16.7 12 Oeste 18 Oeste 0 -- -- 97
2018-11-12 05:00:00 15.9 13 Oeste 15 Oeste 0 -- -- 97
2018-11-12 04:00:00 15.5 9 Oeste 12 Oeste 0 -- -- 96
2018-11-12 03:00:00 15.2 7 Oeste 10 Oeste 0 -- -- 95
2018-11-12 02:00:00 15.1 7 Oeste 9 Oeste 0 -- -- 94
2018-11-12 01:00:00 15.5 6 Noroeste 9 Oeste 0 -- -- 93
2018-11-12 00:00:00 14.9 4 Sudoeste 4 Sudoeste 0 -- -- 90
2018-11-11 23:00:00 15.5 2 Sudoeste 7 Oeste 0 -- -- 89
2018-11-11 22:00:00 16.3 2 Sudoeste 6 Noroeste 0 -- -- 88
2018-11-11 21:00:00 16.5 3 Noroeste 6 Noroeste 0 -- -- 88
2018-11-11 20:00:00 16.7 3 Oeste 12 Noroeste 0 -- -- 84
2018-11-11 19:00:00 17.8 6 Noroeste 18 Noroeste 0 -- -- 81
2018-11-11 18:00:00 19 10 Noroeste 21 Noroeste 0 -- -- 76
2018-11-11 17:00:00 20.1 9 Norte 28 Noroeste 0 -- -- 71
2018-11-11 16:00:00 20 14 Noroeste 27 Noroeste 0 -- -- 69
2018-11-11 15:00:00 21.1 13 Norte 25 Norte 0 -- -- 65
2018-11-11 14:00:00 21.2 10 Norte 26 Noroeste 0 -- -- 66
2018-11-11 13:00:00 20.7 10 Norte 25 Noroeste 0 -- -- 67
2018-11-11 12:00:00 21 7 Nordeste 33 Norte 0 -- -- 65
2018-11-11 11:00:00 20 10 Norte 21 Norte 0 -- -- 70
2018-11-11 10:00:00 19 10 Norte 21 Norte 0 -- -- 77
2018-11-11 09:00:00 16.9 3 Nordeste 6 Nordeste 0 -- -- 88
2018-11-11 08:00:00 14.2 4 Sudeste 6 Este 0 -- -- 93
2018-11-11 07:00:00 13.8 3 Este 7 Este 0 -- -- 91
2018-11-11 06:00:00 13.7 4 Este 6 Sudeste 0 -- -- 91
2018-11-11 05:00:00 13.8 5 Sudeste 7 Este 0 -- -- 92
2018-11-11 04:00:00 13.1 4 Sudeste 5 Sudeste 0 -- -- 90
2018-11-11 03:00:00 13.3 0 Calma 5 Nordeste 0 -- -- 90
2018-11-11 02:00:00 13.6 3 Sudeste 6 Sudeste 0 -- -- 87
2018-11-11 01:00:00 14.2 2 Este 5 Este 0 -- -- 85
2018-11-11 00:00:00 14.7 2 Este 10 Norte 0 -- -- 84
2018-11-10 23:00:00 15.7 6 Nordeste 13 Norte 0 -- -- 80
2018-11-10 22:00:00 16.2 6 Nordeste 18 Nordeste 0 -- -- 79
2018-11-10 21:00:00 16.9 11 Norte 18 Norte 0 -- -- 76
2018-11-10 20:00:00 17.3 10 Norte 25 Norte 0 -- -- 74
2018-11-10 19:00:00 17.8 14 Norte 27 Norte 0 -- -- 72
2018-11-10 18:00:00 18.6 14 Norte 29 Norte 0 -- -- 68
2018-11-10 17:00:00 19.3 15 Norte 31 Norte 0 -- -- 66
2018-11-10 16:00:00 20.1 16 Norte 30 Norte 0 -- -- 64
2018-11-10 15:00:00 20.4 15 Norte 34 Norte 0 -- -- 63
2018-11-10 14:00:00 20.4 18 Norte 33 Nordeste 0 -- -- 62
2018-11-10 13:00:00 20.6 15 Norte 31 Nordeste 0 -- -- 61
2018-11-10 12:00:00 20.9 16 Nordeste 27 Nordeste 0 -- -- 60
2018-11-10 11:00:00 19.8 15 Nordeste 33 Nordeste 0 -- -- 63
2018-11-10 10:00:00 19.1 18 Nordeste 33 Nordeste 0 -- -- 68
2018-11-10 09:00:00 17.5 15 Norte 27 Nordeste 0 -- -- 74
2018-11-10 08:00:00 15.3 7 Nordeste 12 Nordeste 0 -- -- 88
2018-11-10 07:00:00 14.5 3 Nordeste 12 Norte 0 -- -- 86
2018-11-10 06:00:00 15.3 8 Nordeste 20 Norte 0 -- -- 84
2018-11-10 05:00:00 15.4 7 Nordeste 18 Norte 0 -- -- 81
2018-11-10 04:00:00 15.7 9 Norte 16 Nordeste 0 -- -- 81
2018-11-10 03:00:00 15.2 6 Nordeste 18 Norte 0 -- -- 81
2018-11-10 02:00:00 15.4 6 Nordeste 15 Norte 0 -- -- 81
2018-11-10 01:00:00 15.5 6 Nordeste 13 Nordeste 0 -- -- 81
2018-11-10 00:00:00 15.8 9 Nordeste 22 Nordeste 0 -- -- 79